sensor_id;sensor_type;location;lat;lon;timestamp;P1;durP1;ratioP1;P2;durP2;ratioP2
29938;SDS011;16799;50.844;5.304;2022-08-11T00:05:05;3.53;;;2.53;;
29938;SDS011;16799;50.844;5.304;2022-08-11T00:07:40;7.00;;;3.17;;
29938;SDS011;16799;50.844;5.304;2022-08-11T00:10:15;12.33;;;3.53;;
29938;SDS011;16799;50.844;5.304;2022-08-11T00:12:58;3.00;;;2.80;;
29938;SDS011;16799;50.844;5.304;2022-08-11T00:15:28;3.50;;;3.30;;
29938;SDS011;16799;50.844;5.304;2022-08-11T00:18:03;8.80;;;2.83;;
29938;SDS011;16799;50.844;5.304;2022-08-11T00:20:31;3.57;;;3.00;;
29938;SDS011;16799;50.844;5.304;2022-08-11T00:23:09;3.73;;;1.90;;
29938;SDS011;16799;50.844;5.304;2022-08-11T00:25:39;7.23;;;2.50;;
29938;SDS011;16799;50.844;5.304;2022-08-11T00:28:23;3.40;;;2.33;;
29938;SDS011;16799;50.844;5.304;2022-08-11T00:30:58;4.30;;;2.40;;
29938;SDS011;16799;50.844;5.304;2022-08-11T00:33:33;4.10;;;2.83;;
29938;SDS011;16799;50.844;5.304;2022-08-11T00:36:02;3.67;;;3.00;;
29938;SDS011;16799;50.844;5.304;2022-08-11T00:38:31;4.40;;;3.13;;
29938;SDS011;16799;50.844;5.304;2022-08-11T00:41:17;3.03;;;2.73;;
29938;SDS011;16799;50.844;5.304;2022-08-11T00:44:08;6.30;;;3.10;;
29938;SDS011;16799;50.844;5.304;2022-08-11T00:46:55;3.47;;;2.80;;
29938;SDS011;16799;50.844;5.304;2022-08-11T00:49:38;3.07;;;2.77;;
29938;SDS011;16799;50.844;5.304;2022-08-11T01:23:47;3.63;;;3.40;;
29938;SDS011;16799;50.844;5.304;2022-08-11T01:35:33;7.23;;;3.40;;
29938;SDS011;16799;50.844;5.304;2022-08-11T01:43:50;3.50;;;3.20;;
29938;SDS011;16799;50.844;5.304;2022-08-11T01:46:55;5.10;;;3.27;;
29938;SDS011;16799;50.844;5.304;2022-08-11T01:52:47;13.90;;;3.37;;
29938;SDS011;16799;50.844;5.304;2022-08-11T02:04:24;3.57;;;3.33;;
29938;SDS011;16799;50.844;5.304;2022-08-11T02:10:02;8.03;;;3.27;;
29938;SDS011;16799;50.844;5.304;2022-08-11T02:16:02;3.40;;;3.10;;
29938;SDS011;16799;50.844;5.304;2022-08-11T02:18:38;3.20;;;3.00;;
29938;SDS011;16799;50.844;5.304;2022-08-11T02:21:36;3.87;;;3.57;;
29938;SDS011;16799;50.844;5.304;2022-08-11T02:24:34;11.97;;;3.87;;
29938;SDS011;16799;50.844;5.304;2022-08-11T02:27:15;3.40;;;3.10;;
29938;SDS011;16799;50.844;5.304;2022-08-11T02:30:04;3.97;;;3.50;;
29938;SDS011;16799;50.844;5.304;2022-08-11T02:32:47;4.00;;;3.70;;
29938;SDS011;16799;50.844;5.304;2022-08-11T02:38:34;5.53;;;3.50;;
29938;SDS011;16799;50.844;5.304;2022-08-11T02:41:17;3.73;;;3.43;;
29938;SDS011;16799;50.844;5.304;2022-08-11T02:44:36;4.10;;;3.90;;
29938;SDS011;16799;50.844;5.304;2022-08-11T02:49:43;4.60;;;4.30;;
29938;SDS011;16799;50.844;5.304;2022-08-11T02:52:34;3.40;;;3.20;;
29938;SDS011;16799;50.844;5.304;2022-08-11T02:55:26;6.30;;;3.77;;
29938;SDS011;16799;50.844;5.304;2022-08-11T02:57:58;5.53;;;4.77;;
29938;SDS011;16799;50.844;5.304;2022-08-11T03:00:49;4.30;;;3.90;;
29938;SDS011;16799;50.844;5.304;2022-08-11T03:03:43;3.43;;;3.23;;
29938;SDS011;16799;50.844;5.304;2022-08-11T03:09:45;3.73;;;3.47;;
29938;SDS011;16799;50.844;5.304;2022-08-11T03:12:29;4.47;;;4.07;;
29938;SDS011;16799;50.844;5.304;2022-08-11T03:15:27;3.77;;;3.50;;
29938;SDS011;16799;50.844;5.304;2022-08-11T03:18:50;3.70;;;3.40;;
29938;SDS011;16799;50.844;5.304;2022-08-11T03:21:26;4.60;;;4.30;;
29938;SDS011;16799;50.844;5.304;2022-08-11T03:30:27;4.40;;;4.00;;
29938;SDS011;16799;50.844;5.304;2022-08-11T03:35:36;13.23;;;5.10;;
29938;SDS011;16799;50.844;5.304;2022-08-11T03:38:07;6.27;;;4.50;;
29938;SDS011;16799;50.844;5.304;2022-08-11T03:40:49;6.23;;;4.23;;
29938;SDS011;16799;50.844;5.304;2022-08-11T03:44:00;4.60;;;4.23;;
29938;SDS011;16799;50.844;5.304;2022-08-11T03:46:57;5.10;;;4.80;;
29938;SDS011;16799;50.844;5.304;2022-08-11T03:49:30;4.10;;;3.80;;
29938;SDS011;16799;50.844;5.304;2022-08-11T04:05:48;11.03;;;4.40;;
29938;SDS011;16799;50.844;5.304;2022-08-11T04:18:14;6.13;;;5.40;;
29938;SDS011;16799;50.844;5.304;2022-08-11T04:28:59;4.60;;;4.30;;
29938;SDS011;16799;50.844;5.304;2022-08-11T04:48:35;6.13;;;4.47;;
29938;SDS011;16799;50.844;5.304;2022-08-11T04:51:47;5.07;;;4.63;;
29938;SDS011;16799;50.844;5.304;2022-08-11T04:54:57;3.97;;;3.67;;
29938;SDS011;16799;50.844;5.304;2022-08-11T04:58:20;5.40;;;4.90;;
29938;SDS011;16799;50.844;5.304;2022-08-11T05:01:31;5.63;;;4.40;;
29938;SDS011;16799;50.844;5.304;2022-08-11T05:12:55;6.43;;;5.47;;
29938;SDS011;16799;50.844;5.304;2022-08-11T05:15:46;4.90;;;4.50;;
29938;SDS011;16799;50.844;5.304;2022-08-11T05:18:38;5.10;;;4.30;;
29938;SDS011;16799;50.844;5.304;2022-08-11T05:21:33;5.50;;;5.10;;
29938;SDS011;16799;50.844;5.304;2022-08-11T05:24:22;5.43;;;4.80;;
29938;SDS011;16799;50.844;5.304;2022-08-11T05:27:13;4.73;;;4.33;;
29938;SDS011;16799;50.844;5.304;2022-08-11T05:30:02;8.53;;;4.90;;
29938;SDS011;16799;50.844;5.304;2022-08-11T05:33:02;4.63;;;4.00;;
29938;SDS011;16799;50.844;5.304;2022-08-11T05:35:54;4.67;;;4.37;;
29938;SDS011;16799;50.844;5.304;2022-08-11T05:38:37;12.70;;;5.80;;
29938;SDS011;16799;50.844;5.304;2022-08-11T05:41:23;7.20;;;5.50;;
29938;SDS011;16799;50.844;5.304;2022-08-11T05:44:09;5.10;;;4.80;;
29938;SDS011;16799;50.844;5.304;2022-08-11T05:47:00;5.77;;;5.00;;
29938;SDS011;16799;50.844;5.304;2022-08-11T05:49:48;8.37;;;5.60;;
29938;SDS011;16799;50.844;5.304;2022-08-11T05:52:33;7.70;;;6.20;;
29938;SDS011;16799;50.844;5.304;2022-08-11T05:55:19;5.57;;;5.13;;
29938;SDS011;16799;50.844;5.304;2022-08-11T05:58:04;8.97;;;5.23;;
29938;SDS011;16799;50.844;5.304;2022-08-11T06:00:54;6.33;;;5.73;;
29938;SDS011;16799;50.844;5.304;2022-08-11T06:03:24;8.03;;;5.40;;
29938;SDS011;16799;50.844;5.304;2022-08-11T06:05:52;6.90;;;6.27;;
29938;SDS011;16799;50.844;5.304;2022-08-11T06:08:26;11.00;;;5.73;;
29938;SDS011;16799;50.844;5.304;2022-08-11T06:10:58;9.70;;;5.10;;
29938;SDS011;16799;50.844;5.304;2022-08-11T06:13:25;5.50;;;5.10;;
29938;SDS011;16799;50.844;5.304;2022-08-11T06:15:52;6.30;;;5.70;;
29938;SDS011;16799;50.844;5.304;2022-08-11T06:18:19;12.63;;;5.60;;
29938;SDS011;16799;50.844;5.304;2022-08-11T06:20:49;8.40;;;5.40;;
29938;SDS011;16799;50.844;5.304;2022-08-11T06:23:19;6.73;;;5.30;;
29938;SDS011;16799;50.844;5.304;2022-08-11T06:25:48;5.30;;;4.80;;
29938;SDS011;16799;50.844;5.304;2022-08-11T06:28:18;5.70;;;5.23;;
29938;SDS011;16799;50.844;5.304;2022-08-11T06:30:54;9.17;;;7.53;;
29938;SDS011;16799;50.844;5.304;2022-08-11T06:33:34;12.00;;;5.20;;
29938;SDS011;16799;50.844;5.304;2022-08-11T06:41:22;17.53;;;5.70;;
29938;SDS011;16799;50.844;5.304;2022-08-11T06:46:55;8.53;;;5.70;;
29938;SDS011;16799;50.844;5.304;2022-08-11T06:49:44;9.60;;;5.47;;
29938;SDS011;16799;50.844;5.304;2022-08-11T06:52:31;9.10;;;6.00;;
29938;SDS011;16799;50.844;5.304;2022-08-11T06:55:00;12.17;;;7.30;;
29938;SDS011;16799;50.844;5.304;2022-08-11T06:57:38;5.90;;;5.30;;
29938;SDS011;16799;50.844;5.304;2022-08-11T07:00:27;8.10;;;5.30;;
29938;SDS011;16799;50.844;5.304;2022-08-11T07:03:00;8.60;;;5.10;;
29938;SDS011;16799;50.844;5.304;2022-08-11T07:05:49;8.90;;;4.50;;
29938;SDS011;16799;50.844;5.304;2022-08-11T07:14:31;6.27;;;5.67;;
29938;SDS011;16799;50.844;5.304;2022-08-11T07:17:18;5.53;;;4.60;;
29938;SDS011;16799;50.844;5.304;2022-08-11T07:19:49;8.83;;;4.30;;
29938;SDS011;16799;50.844;5.304;2022-08-11T07:22:36;4.70;;;4.30;;
29938;SDS011;16799;50.844;5.304;2022-08-11T07:25:22;7.43;;;4.80;;
29938;SDS011;16799;50.844;5.304;2022-08-11T07:28:13;7.00;;;3.77;;
29938;SDS011;16799;50.844;5.304;2022-08-11T07:31:07;4.97;;;4.47;;
29938;SDS011;16799;50.844;5.304;2022-08-11T07:33:48;5.43;;;3.80;;
29938;SDS011;16799;50.844;5.304;2022-08-11T07:36:17;7.40;;;4.80;;
29938;SDS011;16799;50.844;5.304;2022-08-11T07:38:49;5.83;;;3.93;;
29938;SDS011;16799;50.844;5.304;2022-08-11T07:41:21;7.10;;;3.80;;
29938;SDS011;16799;50.844;5.304;2022-08-11T07:43:48;5.50;;;4.23;;
29938;SDS011;16799;50.844;5.304;2022-08-11T07:46:16;5.10;;;4.70;;
29938;SDS011;16799;50.844;5.304;2022-08-11T07:49:03;12.93;;;5.03;;
29938;SDS011;16799;50.844;5.304;2022-08-11T07:51:50;6.73;;;4.13;;
29938;SDS011;16799;50.844;5.304;2022-08-11T07:54:36;7.07;;;3.90;;
29938;SDS011;16799;50.844;5.304;2022-08-11T07:57:03;5.20;;;4.47;;
29938;SDS011;16799;50.844;5.304;2022-08-11T07:59:51;12.40;;;3.97;;
29938;SDS011;16799;50.844;5.304;2022-08-11T08:02:36;12.00;;;5.03;;
29938;SDS011;16799;50.844;5.304;2022-08-11T08:05:21;7.30;;;3.00;;
29938;SDS011;16799;50.844;5.304;2022-08-11T08:08:06;4.57;;;4.17;;
29938;SDS011;16799;50.844;5.304;2022-08-11T08:10:52;6.43;;;3.67;;
29938;SDS011;16799;50.844;5.304;2022-08-11T08:13:39;3.47;;;2.47;;
29938;SDS011;16799;50.844;5.304;2022-08-11T08:16:25;10.57;;;4.20;;
29938;SDS011;16799;50.844;5.304;2022-08-11T08:19:12;7.40;;;3.50;;
29938;SDS011;16799;50.844;5.304;2022-08-11T08:21:41;9.53;;;5.57;;
29938;SDS011;16799;50.844;5.304;2022-08-11T08:24:08;3.20;;;3.00;;
29938;SDS011;16799;50.844;5.304;2022-08-11T08:26:35;3.50;;;3.30;;
29938;SDS011;16799;50.844;5.304;2022-08-11T08:29:20;2.80;;;2.60;;
29938;SDS011;16799;50.844;5.304;2022-08-11T08:32:06;4.20;;;3.50;;
29938;SDS011;16799;50.844;5.304;2022-08-11T08:34:33;4.87;;;3.53;;
29938;SDS011;16799;50.844;5.304;2022-08-11T08:37:01;4.33;;;4.00;;
29938;SDS011;16799;50.844;5.304;2022-08-11T08:39:27;3.20;;;2.93;;
29938;SDS011;16799;50.844;5.304;2022-08-11T08:41:54;3.07;;;2.87;;
29938;SDS011;16799;50.844;5.304;2022-08-11T08:44:23;6.90;;;4.07;;
29938;SDS011;16799;50.844;5.304;2022-08-11T08:46:53;4.90;;;2.90;;
29938;SDS011;16799;50.844;5.304;2022-08-11T08:49:22;5.70;;;3.40;;
29938;SDS011;16799;50.844;5.304;2022-08-11T08:51:53;4.00;;;3.70;;
29938;SDS011;16799;50.844;5.304;2022-08-11T08:54:28;6.53;;;4.10;;
29938;SDS011;16799;50.844;5.304;2022-08-11T08:56:58;5.00;;;3.20;;
29938;SDS011;16799;50.844;5.304;2022-08-11T08:59:27;5.57;;;3.00;;
29938;SDS011;16799;50.844;5.304;2022-08-11T09:01:57;5.10;;;3.30;;
29938;SDS011;16799;50.844;5.304;2022-08-11T09:04:26;3.40;;;3.20;;
29938;SDS011;16799;50.844;5.304;2022-08-11T09:06:52;6.13;;;2.73;;
29938;SDS011;16799;50.844;5.304;2022-08-11T09:09:20;3.00;;;2.80;;
29938;SDS011;16799;50.844;5.304;2022-08-11T09:11:47;6.50;;;3.13;;
29938;SDS011;16799;50.844;5.304;2022-08-11T09:14:23;3.73;;;3.43;;
29938;SDS011;16799;50.844;5.304;2022-08-11T09:17:19;2.87;;;2.67;;
29938;SDS011;16799;50.844;5.304;2022-08-11T09:19:46;4.50;;;3.27;;
29938;SDS011;16799;50.844;5.304;2022-08-11T09:22:18;4.00;;;3.63;;
29938;SDS011;16799;50.844;5.304;2022-08-11T09:25:04;3.60;;;2.77;;
29938;SDS011;16799;50.844;5.304;2022-08-11T09:27:50;4.50;;;2.93;;
29938;SDS011;16799;50.844;5.304;2022-08-11T09:30:18;5.77;;;2.73;;
29938;SDS011;16799;50.844;5.304;2022-08-11T09:32:44;7.60;;;3.60;;
29938;SDS011;16799;50.844;5.304;2022-08-11T09:35:10;4.10;;;2.83;;
29938;SDS011;16799;50.844;5.304;2022-08-11T09:37:36;2.30;;;2.20;;
29938;SDS011;16799;50.844;5.304;2022-08-11T09:40:23;7.63;;;2.87;;
29938;SDS011;16799;50.844;5.304;2022-08-11T09:42:57;5.60;;;3.20;;
29938;SDS011;16799;50.844;5.304;2022-08-11T09:45:49;5.43;;;2.50;;
29938;SDS011;16799;50.844;5.304;2022-08-11T09:48:17;2.90;;;2.70;;
29938;SDS011;16799;50.844;5.304;2022-08-11T09:50:48;4.67;;;3.50;;
29938;SDS011;16799;50.844;5.304;2022-08-11T09:53:17;3.20;;;2.57;;
29938;SDS011;16799;50.844;5.304;2022-08-11T09:55:44;4.57;;;2.90;;
29938;SDS011;16799;50.844;5.304;2022-08-11T09:58:11;3.43;;;2.13;;
29938;SDS011;16799;50.844;5.304;2022-08-11T10:00:38;5.17;;;2.60;;
29938;SDS011;16799;50.844;5.304;2022-08-11T10:03:06;5.30;;;2.80;;
29938;SDS011;16799;50.844;5.304;2022-08-11T10:05:43;6.20;;;2.60;;
29938;SDS011;16799;50.844;5.304;2022-08-11T10:08:33;4.83;;;2.93;;
29938;SDS011;16799;50.844;5.304;2022-08-11T10:11:03;3.40;;;2.63;;
29938;SDS011;16799;50.844;5.304;2022-08-11T10:13:31;2.63;;;2.30;;
29938;SDS011;16799;50.844;5.304;2022-08-11T10:16:02;5.20;;;1.97;;
29938;SDS011;16799;50.844;5.304;2022-08-11T10:18:33;2.03;;;1.93;;
29938;SDS011;16799;50.844;5.304;2022-08-11T10:21:14;4.20;;;2.30;;
29938;SDS011;16799;50.844;5.304;2022-08-11T10:23:58;3.67;;;3.00;;
29938;SDS011;16799;50.844;5.304;2022-08-11T10:26:57;3.30;;;2.23;;
29938;SDS011;16799;50.844;5.304;2022-08-11T10:32:22;3.40;;;3.10;;
29938;SDS011;16799;50.844;5.304;2022-08-11T10:35:14;3.40;;;2.73;;
29938;SDS011;16799;50.844;5.304;2022-08-11T10:37:41;7.93;;;2.73;;
29938;SDS011;16799;50.844;5.304;2022-08-11T10:40:12;2.27;;;2.07;;
29938;SDS011;16799;50.844;5.304;2022-08-11T10:42:42;3.00;;;2.10;;
29938;SDS011;16799;50.844;5.304;2022-08-11T10:45:27;2.13;;;1.97;;
29938;SDS011;16799;50.844;5.304;2022-08-11T10:48:12;6.50;;;3.13;;
29938;SDS011;16799;50.844;5.304;2022-08-11T10:50:39;6.73;;;2.13;;
29938;SDS011;16799;50.844;5.304;2022-08-11T10:53:29;2.00;;;1.73;;
29938;SDS011;16799;50.844;5.304;2022-08-11T10:56:13;3.30;;;2.60;;
29938;SDS011;16799;50.844;5.304;2022-08-11T10:58:58;5.93;;;1.90;;
29938;SDS011;16799;50.844;5.304;2022-08-11T11:01:25;8.73;;;2.27;;
29938;SDS011;16799;50.844;5.304;2022-08-11T11:03:57;2.23;;;2.03;;
29938;SDS011;16799;50.844;5.304;2022-08-11T11:11:35;2.40;;;1.60;;
29938;SDS011;16799;50.844;5.304;2022-08-11T11:14:21;1.93;;;1.83;;
29938;SDS011;16799;50.844;5.304;2022-08-11T11:17:08;2.80;;;2.60;;
29938;SDS011;16799;50.844;5.304;2022-08-11T11:19:39;2.67;;;2.20;;
29938;SDS011;16799;50.844;5.304;2022-08-11T11:22:06;1.37;;;1.27;;
29938;SDS011;16799;50.844;5.304;2022-08-11T11:25:03;2.53;;;2.00;;
29938;SDS011;16799;50.844;5.304;2022-08-11T11:27:47;1.90;;;1.70;;
29938;SDS011;16799;50.844;5.304;2022-08-11T11:30:38;1.70;;;1.60;;
29938;SDS011;16799;50.844;5.304;2022-08-11T11:33:21;4.50;;;1.93;;
29938;SDS011;16799;50.844;5.304;2022-08-11T11:36:18;2.00;;;1.60;;
29938;SDS011;16799;50.844;5.304;2022-08-11T11:38:56;4.27;;;1.80;;
29938;SDS011;16799;50.844;5.304;2022-08-11T11:41:22;3.03;;;1.57;;
29938;SDS011;16799;50.844;5.304;2022-08-11T11:43:51;6.17;;;2.27;;
29938;SDS011;16799;50.844;5.304;2022-08-11T11:46:18;3.23;;;2.20;;
29938;SDS011;16799;50.844;5.304;2022-08-11T11:48:44;3.07;;;2.00;;
29938;SDS011;16799;50.844;5.304;2022-08-11T11:51:11;7.03;;;1.80;;
29938;SDS011;16799;50.844;5.304;2022-08-11T11:53:39;2.03;;;1.90;;
29938;SDS011;16799;50.844;5.304;2022-08-11T11:56:09;1.77;;;1.67;;
29938;SDS011;16799;50.844;5.304;2022-08-11T11:58:36;2.30;;;2.20;;
29938;SDS011;16799;50.844;5.304;2022-08-11T12:01:22;2.87;;;2.53;;
29938;SDS011;16799;50.844;5.304;2022-08-11T12:03:50;9.73;;;2.23;;
29938;SDS011;16799;50.844;5.304;2022-08-11T12:06:17;1.80;;;1.70;;
29938;SDS011;16799;50.844;5.304;2022-08-11T12:08:47;3.53;;;2.20;;
29938;SDS011;16799;50.844;5.304;2022-08-11T12:11:14;2.30;;;2.10;;
29938;SDS011;16799;50.844;5.304;2022-08-11T12:14:02;3.97;;;1.87;;
29938;SDS011;16799;50.844;5.304;2022-08-11T12:16:29;2.17;;;1.80;;
29938;SDS011;16799;50.844;5.304;2022-08-11T12:18:59;1.77;;;1.67;;
29938;SDS011;16799;50.844;5.304;2022-08-11T12:21:26;1.50;;;1.40;;
29938;SDS011;16799;50.844;5.304;2022-08-11T12:23:53;3.20;;;1.87;;
29938;SDS011;16799;50.844;5.304;2022-08-11T12:26:40;3.90;;;1.90;;
29938;SDS011;16799;50.844;5.304;2022-08-11T12:29:13;2.47;;;1.67;;
29938;SDS011;16799;50.844;5.304;2022-08-11T12:31:41;6.20;;;1.67;;
29938;SDS011;16799;50.844;5.304;2022-08-11T12:34:09;2.00;;;1.77;;
29938;SDS011;16799;50.844;5.304;2022-08-11T12:36:40;3.27;;;1.73;;
29938;SDS011;16799;50.844;5.304;2022-08-11T12:39:08;1.80;;;1.70;;
29938;SDS011;16799;50.844;5.304;2022-08-11T12:41:36;2.50;;;1.60;;
29938;SDS011;16799;50.844;5.304;2022-08-11T12:44:26;3.17;;;1.63;;
29938;SDS011;16799;50.844;5.304;2022-08-11T12:47:12;1.90;;;1.77;;
29938;SDS011;16799;50.844;5.304;2022-08-11T12:49:50;1.57;;;1.47;;
29938;SDS011;16799;50.844;5.304;2022-08-11T12:52:43;1.77;;;1.30;;
29938;SDS011;16799;50.844;5.304;2022-08-11T12:55:15;1.67;;;1.47;;
29938;SDS011;16799;50.844;5.304;2022-08-11T12:58:02;2.90;;;1.30;;
29938;SDS011;16799;50.844;5.304;2022-08-11T13:00:44;2.70;;;1.20;;
29938;SDS011;16799;50.844;5.304;2022-08-11T13:03:31;2.00;;;1.27;;
29938;SDS011;16799;50.844;5.304;2022-08-11T13:06:17;1.97;;;1.57;;
29938;SDS011;16799;50.844;5.304;2022-08-11T13:08:47;2.40;;;1.50;;
29938;SDS011;16799;50.844;5.304;2022-08-11T13:11:13;3.67;;;1.90;;
29938;SDS011;16799;50.844;5.304;2022-08-11T13:13:59;1.40;;;1.30;;
29938;SDS011;16799;50.844;5.304;2022-08-11T13:16:34;2.00;;;1.90;;
29938;SDS011;16799;50.844;5.304;2022-08-11T13:19:21;2.97;;;1.40;;
29938;SDS011;16799;50.844;5.304;2022-08-11T13:21:50;3.50;;;1.30;;
29938;SDS011;16799;50.844;5.304;2022-08-11T13:24:17;3.30;;;2.03;;
29938;SDS011;16799;50.844;5.304;2022-08-11T13:26:44;3.70;;;1.47;;
29938;SDS011;16799;50.844;5.304;2022-08-11T13:29:10;1.53;;;1.43;;
29938;SDS011;16799;50.844;5.304;2022-08-11T13:31:38;2.00;;;1.90;;
29938;SDS011;16799;50.844;5.304;2022-08-11T13:34:06;1.33;;;1.23;;
29938;SDS011;16799;50.844;5.304;2022-08-11T13:36:33;3.63;;;1.43;;
29938;SDS011;16799;50.844;5.304;2022-08-11T13:39:00;1.53;;;1.43;;
29938;SDS011;16799;50.844;5.304;2022-08-11T13:41:27;1.67;;;1.20;;
29938;SDS011;16799;50.844;5.304;2022-08-11T13:44:08;1.50;;;1.40;;
29938;SDS011;16799;50.844;5.304;2022-08-11T13:46:36;2.20;;;1.60;;
29938;SDS011;16799;50.844;5.304;2022-08-11T13:49:03;1.63;;;1.53;;
29938;SDS011;16799;50.844;5.304;2022-08-11T13:51:33;1.27;;;1.17;;
29938;SDS011;16799;50.844;5.304;2022-08-11T13:54:00;4.87;;;1.47;;
29938;SDS011;16799;50.844;5.304;2022-08-11T13:56:31;4.13;;;1.60;;
29938;SDS011;16799;50.844;5.304;2022-08-11T13:58:58;1.30;;;1.20;;
29938;SDS011;16799;50.844;5.304;2022-08-11T14:01:28;1.97;;;1.20;;
29938;SDS011;16799;50.844;5.304;2022-08-11T14:04:04;4.67;;;1.63;;
29938;SDS011;16799;50.844;5.304;2022-08-11T14:06:49;2.10;;;1.57;;
29938;SDS011;16799;50.844;5.304;2022-08-11T14:09:22;1.80;;;1.47;;
29938;SDS011;16799;50.844;5.304;2022-08-11T14:11:51;1.40;;;1.30;;
29938;SDS011;16799;50.844;5.304;2022-08-11T14:14:40;2.33;;;1.30;;
29938;SDS011;16799;50.844;5.304;2022-08-11T14:17:11;1.30;;;1.17;;
29938;SDS011;16799;50.844;5.304;2022-08-11T14:19:40;3.63;;;1.80;;
29938;SDS011;16799;50.844;5.304;2022-08-11T14:22:08;1.60;;;1.50;;
29938;SDS011;16799;50.844;5.304;2022-08-11T14:24:38;2.23;;;1.50;;
29938;SDS011;16799;50.844;5.304;2022-08-11T14:27:06;1.90;;;1.80;;
29938;SDS011;16799;50.844;5.304;2022-08-11T14:29:34;2.30;;;1.40;;
29938;SDS011;16799;50.844;5.304;2022-08-11T14:32:03;2.73;;;1.60;;
29938;SDS011;16799;50.844;5.304;2022-08-11T14:34:31;6.13;;;1.37;;
29938;SDS011;16799;50.844;5.304;2022-08-11T14:37:00;6.27;;;1.47;;
29938;SDS011;16799;50.844;5.304;2022-08-11T14:39:37;2.40;;;1.53;;
29938;SDS011;16799;50.844;5.304;2022-08-11T14:42:13;1.53;;;1.43;;
29938;SDS011;16799;50.844;5.304;2022-08-11T14:45:04;2.00;;;1.23;;
29938;SDS011;16799;50.844;5.304;2022-08-11T14:47:53;3.63;;;1.27;;
29938;SDS011;16799;50.844;5.304;2022-08-11T14:50:25;2.10;;;1.20;;
29938;SDS011;16799;50.844;5.304;2022-08-11T14:52:54;3.40;;;1.10;;
29938;SDS011;16799;50.844;5.304;2022-08-11T14:55:23;1.20;;;1.10;;
29938;SDS011;16799;50.844;5.304;2022-08-11T14:58:09;6.93;;;1.10;;
29938;SDS011;16799;50.844;5.304;2022-08-11T15:00:37;3.07;;;1.30;;
29938;SDS011;16799;50.844;5.304;2022-08-11T15:03:05;2.87;;;1.43;;
29938;SDS011;16799;50.844;5.304;2022-08-11T15:05:34;1.57;;;1.00;;
29938;SDS011;16799;50.844;5.304;2022-08-11T15:08:03;1.53;;;1.43;;
29938;SDS011;16799;50.844;5.304;2022-08-11T15:10:30;3.40;;;1.30;;
29938;SDS011;16799;50.844;5.304;2022-08-11T15:12:56;2.07;;;1.30;;
29938;SDS011;16799;50.844;5.304;2022-08-11T15:15:24;1.38;;;1.10;;
29938;SDS011;16799;50.844;5.304;2022-08-11T15:18:11;1.43;;;1.33;;
29938;SDS011;16799;50.844;5.304;2022-08-11T15:20:41;1.77;;;1.27;;
29938;SDS011;16799;50.844;5.304;2022-08-11T15:23:26;2.93;;;1.60;;
29938;SDS011;16799;50.844;5.304;2022-08-11T15:29:09;1.67;;;1.43;;
29938;SDS011;16799;50.844;5.304;2022-08-11T15:31:56;1.67;;;1.57;;
29938;SDS011;16799;50.844;5.304;2022-08-11T15:34:41;3.40;;;1.37;;
29938;SDS011;16799;50.844;5.304;2022-08-11T15:37:33;1.35;;;1.25;;
29938;SDS011;16799;50.844;5.304;2022-08-11T15:40:03;1.85;;;1.75;;
29938;SDS011;16799;50.844;5.304;2022-08-11T15:45:42;1.43;;;1.33;;
29938;SDS011;16799;50.844;5.304;2022-08-11T15:51:00;3.07;;;1.33;;
29938;SDS011;16799;50.844;5.304;2022-08-11T15:53:56;8.00;;;1.53;;
29938;SDS011;16799;50.844;5.304;2022-08-11T15:56:25;3.37;;;1.40;;
29938;SDS011;16799;50.844;5.304;2022-08-11T15:58:53;3.13;;;1.60;;
29938;SDS011;16799;50.844;5.304;2022-08-11T16:01:41;1.63;;;1.53;;
29938;SDS011;16799;50.844;5.304;2022-08-11T16:04:27;9.30;;;1.70;;
29938;SDS011;16799;50.844;5.304;2022-08-11T16:06:59;1.90;;;1.40;;
29938;SDS011;16799;50.844;5.304;2022-08-11T16:12:16;2.07;;;1.63;;
29938;SDS011;16799;50.844;5.304;2022-08-11T16:14:45;2.40;;;1.87;;
29938;SDS011;16799;50.844;5.304;2022-08-11T16:17:46;1.50;;;1.40;;
29938;SDS011;16799;50.844;5.304;2022-08-11T16:20:16;1.40;;;1.30;;
29938;SDS011;16799;50.844;5.304;2022-08-11T16:22:50;1.70;;;1.60;;
29938;SDS011;16799;50.844;5.304;2022-08-11T16:25:19;2.53;;;1.60;;
29938;SDS011;16799;50.844;5.304;2022-08-11T16:27:59;2.40;;;1.70;;
29938;SDS011;16799;50.844;5.304;2022-08-11T16:30:32;1.33;;;1.23;;
29938;SDS011;16799;50.844;5.304;2022-08-11T16:33:00;1.03;;;1.00;;
29938;SDS011;16799;50.844;5.304;2022-08-11T16:35:28;3.70;;;1.40;;
29938;SDS011;16799;50.844;5.304;2022-08-11T16:38:15;1.73;;;1.03;;
29938;SDS011;16799;50.844;5.304;2022-08-11T16:41:00;2.30;;;2.07;;
29938;SDS011;16799;50.844;5.304;2022-08-11T16:43:31;3.23;;;1.43;;
29938;SDS011;16799;50.844;5.304;2022-08-11T16:46:17;1.47;;;1.37;;
29938;SDS011;16799;50.844;5.304;2022-08-11T16:49:03;4.80;;;1.57;;
29938;SDS011;16799;50.844;5.304;2022-08-11T16:51:31;2.97;;;2.10;;
29938;SDS011;16799;50.844;5.304;2022-08-11T16:53:58;2.63;;;1.97;;
29938;SDS011;16799;50.844;5.304;2022-08-11T16:56:26;1.90;;;1.57;;
29938;SDS011;16799;50.844;5.304;2022-08-11T16:58:56;8.80;;;1.67;;
29938;SDS011;16799;50.844;5.304;2022-08-11T17:01:38;4.00;;;2.00;;
29938;SDS011;16799;50.844;5.304;2022-08-11T17:04:18;2.50;;;1.53;;
29938;SDS011;16799;50.844;5.304;2022-08-11T17:07:06;2.40;;;1.80;;
29938;SDS011;16799;50.844;5.304;2022-08-11T17:09:50;9.20;;;2.30;;
29938;SDS011;16799;50.844;5.304;2022-08-11T17:12:36;1.90;;;1.70;;
29938;SDS011;16799;50.844;5.304;2022-08-11T17:15:23;2.30;;;1.57;;
29938;SDS011;16799;50.844;5.304;2022-08-11T17:18:08;1.80;;;1.70;;
29938;SDS011;16799;50.844;5.304;2022-08-11T17:20:58;2.80;;;1.60;;
29938;SDS011;16799;50.844;5.304;2022-08-11T17:23:26;2.30;;;2.10;;
29938;SDS011;16799;50.844;5.304;2022-08-11T17:26:57;2.50;;;1.57;;
29938;SDS011;16799;50.844;5.304;2022-08-11T17:30:05;8.87;;;2.23;;
29938;SDS011;16799;50.844;5.304;2022-08-11T17:32:10;2.07;;;1.80;;
29938;SDS011;16799;50.844;5.304;2022-08-11T17:34:58;3.03;;;1.30;;
29938;SDS011;16799;50.844;5.304;2022-08-11T17:37:45;5.73;;;2.47;;
29938;SDS011;16799;50.844;5.304;2022-08-11T17:40:13;6.10;;;2.57;;
29938;SDS011;16799;50.844;5.304;2022-08-11T17:42:45;1.80;;;1.70;;
29938;SDS011;16799;50.844;5.304;2022-08-11T17:45:50;1.63;;;1.53;;
29938;SDS011;16799;50.844;5.304;2022-08-11T17:48:42;2.17;;;2.07;;
29938;SDS011;16799;50.844;5.304;2022-08-11T17:51:11;2.40;;;1.50;;
29938;SDS011;16799;50.844;5.304;2022-08-11T17:54:01;6.33;;;2.50;;
29938;SDS011;16799;50.844;5.304;2022-08-11T17:56:47;2.30;;;2.10;;
29938;SDS011;16799;50.844;5.304;2022-08-11T17:59:40;5.40;;;2.30;;
29938;SDS011;16799;50.844;5.304;2022-08-11T18:02:38;3.03;;;2.83;;
29938;SDS011;16799;50.844;5.304;2022-08-11T18:05:27;3.60;;;2.13;;
29938;SDS011;16799;50.844;5.304;2022-08-11T18:07:56;2.77;;;2.57;;
29938;SDS011;16799;50.844;5.304;2022-08-11T18:10:41;2.03;;;1.93;;
29938;SDS011;16799;50.844;5.304;2022-08-11T18:13:29;3.67;;;2.27;;
29938;SDS011;16799;50.844;5.304;2022-08-11T18:16:15;5.00;;;2.53;;
29938;SDS011;16799;50.844;5.304;2022-08-11T18:19:01;4.70;;;2.20;;
29938;SDS011;16799;50.844;5.304;2022-08-11T18:21:45;4.73;;;2.70;;
29938;SDS011;16799;50.844;5.304;2022-08-11T18:24:36;6.00;;;2.53;;
29938;SDS011;16799;50.844;5.304;2022-08-11T18:27:23;6.87;;;2.83;;
29938;SDS011;16799;50.844;5.304;2022-08-11T18:30:13;2.93;;;2.10;;
29938;SDS011;16799;50.844;5.304;2022-08-11T18:32:59;7.40;;;3.17;;
29938;SDS011;16799;50.844;5.304;2022-08-11T18:35:49;7.33;;;2.57;;
29938;SDS011;16799;50.844;5.304;2022-08-11T18:38:39;3.47;;;2.70;;
29938;SDS011;16799;50.844;5.304;2022-08-11T18:41:25;2.33;;;2.23;;
29938;SDS011;16799;50.844;5.304;2022-08-11T18:44:12;3.20;;;2.60;;
29938;SDS011;16799;50.844;5.304;2022-08-11T18:46:58;2.77;;;2.40;;
29938;SDS011;16799;50.844;5.304;2022-08-11T18:49:48;2.57;;;2.37;;
29938;SDS011;16799;50.844;5.304;2022-08-11T18:52:37;3.23;;;2.80;;
29938;SDS011;16799;50.844;5.304;2022-08-11T18:55:25;2.80;;;2.60;;